sensor_id;sensor_type;location;lat;lon;timestamp;P1;durP1;ratioP1;P2;durP2;ratioP2
2486;SDS011;1254;49.144;8.212;2024-03-08T00:00:52;25.90;;;18.75;;
2486;SDS011;1254;49.144;8.212;2024-03-08T00:03:20;24.98;;;18.30;;
2486;SDS011;1254;49.144;8.212;2024-03-08T00:05:49;25.35;;;17.20;;
2486;SDS011;1254;49.144;8.212;2024-03-08T00:08:17;27.85;;;16.38;;
2486;SDS011;1254;49.144;8.212;2024-03-08T00:10:45;26.25;;;16.55;;
2486;SDS011;1254;49.144;8.212;2024-03-08T00:13:14;26.15;;;17.05;;
2486;SDS011;1254;49.144;8.212;2024-03-08T00:15:43;26.08;;;18.02;;
2486;SDS011;1254;49.144;8.212;2024-03-08T00:18:12;29.13;;;19.02;;
2486;SDS011;1254;49.144;8.212;2024-03-08T00:20:40;28.00;;;17.90;;
2486;SDS011;1254;49.144;8.212;2024-03-08T00:23:10;25.23;;;18.38;;
2486;SDS011;1254;49.144;8.212;2024-03-08T00:25:38;26.00;;;17.83;;
2486;SDS011;1254;49.144;8.212;2024-03-08T00:28:07;27.05;;;18.17;;
2486;SDS011;1254;49.144;8.212;2024-03-08T00:30:39;27.02;;;18.88;;
2486;SDS011;1254;49.144;8.212;2024-03-08T00:33:10;25.55;;;17.80;;
2486;SDS011;1254;49.144;8.212;2024-03-08T00:35:38;24.45;;;17.33;;
2486;SDS011;1254;49.144;8.212;2024-03-08T00:38:06;24.17;;;16.88;;
2486;SDS011;1254;49.144;8.212;2024-03-08T00:40:35;30.15;;;18.80;;
2486;SDS011;1254;49.144;8.212;2024-03-08T00:43:03;25.48;;;18.05;;
2486;SDS011;1254;49.144;8.212;2024-03-08T00:45:31;25.77;;;18.80;;
2486;SDS011;1254;49.144;8.212;2024-03-08T00:48:00;25.90;;;18.67;;
2486;SDS011;1254;49.144;8.212;2024-03-08T00:50:30;27.80;;;17.38;;
2486;SDS011;1254;49.144;8.212;2024-03-08T00:52:58;28.38;;;18.60;;
2486;SDS011;1254;49.144;8.212;2024-03-08T00:55:26;28.40;;;17.95;;
2486;SDS011;1254;49.144;8.212;2024-03-08T00:57:55;23.15;;;15.40;;
2486;SDS011;1254;49.144;8.212;2024-03-08T01:00:24;24.70;;;17.52;;
2486;SDS011;1254;49.144;8.212;2024-03-08T01:02:53;24.25;;;17.63;;
2486;SDS011;1254;49.144;8.212;2024-03-08T01:05:23;29.60;;;16.70;;
2486;SDS011;1254;49.144;8.212;2024-03-08T01:07:53;27.67;;;17.70;;
2486;SDS011;1254;49.144;8.212;2024-03-08T01:10:22;32.33;;;19.52;;
2486;SDS011;1254;49.144;8.212;2024-03-08T01:12:50;24.50;;;17.00;;
2486;SDS011;1254;49.144;8.212;2024-03-08T01:15:20;26.75;;;16.52;;
2486;SDS011;1254;49.144;8.212;2024-03-08T01:17:49;25.90;;;18.00;;
2486;SDS011;1254;49.144;8.212;2024-03-08T01:20:17;22.02;;;16.02;;
2486;SDS011;1254;49.144;8.212;2024-03-08T01:22:47;27.15;;;17.33;;
2486;SDS011;1254;49.144;8.212;2024-03-08T01:25:17;26.38;;;18.05;;
2486;SDS011;1254;49.144;8.212;2024-03-08T01:27:45;25.48;;;17.50;;
2486;SDS011;1254;49.144;8.212;2024-03-08T01:30:14;21.42;;;15.82;;
2486;SDS011;1254;49.144;8.212;2024-03-08T01:32:43;26.50;;;17.70;;
2486;SDS011;1254;49.144;8.212;2024-03-08T01:35:11;23.23;;;15.80;;
2486;SDS011;1254;49.144;8.212;2024-03-08T01:37:40;26.15;;;17.83;;
2486;SDS011;1254;49.144;8.212;2024-03-08T01:40:08;27.38;;;18.15;;
2486;SDS011;1254;49.144;8.212;2024-03-08T01:42:39;23.58;;;16.80;;
2486;SDS011;1254;49.144;8.212;2024-03-08T01:45:10;23.75;;;17.05;;
2486;SDS011;1254;49.144;8.212;2024-03-08T01:50:32;27.20;;;18.70;;
2486;SDS011;1254;49.144;8.212;2024-03-08T01:53:02;23.20;;;15.90;;
2486;SDS011;1254;49.144;8.212;2024-03-08T01:55:31;27.40;;;17.50;;
2486;SDS011;1254;49.144;8.212;2024-03-08T01:58:02;24.35;;;16.95;;
2486;SDS011;1254;49.144;8.212;2024-03-08T02:00:31;28.60;;;18.90;;
2486;SDS011;1254;49.144;8.212;2024-03-08T02:03:00;27.63;;;17.70;;
2486;SDS011;1254;49.144;8.212;2024-03-08T02:05:28;24.08;;;17.15;;
2486;SDS011;1254;49.144;8.212;2024-03-08T02:07:57;25.20;;;17.98;;
2486;SDS011;1254;49.144;8.212;2024-03-08T02:10:25;29.02;;;17.45;;
2486;SDS011;1254;49.144;8.212;2024-03-08T02:12:53;27.63;;;18.40;;
2486;SDS011;1254;49.144;8.212;2024-03-08T02:15:23;31.27;;;18.83;;
2486;SDS011;1254;49.144;8.212;2024-03-08T02:17:52;22.63;;;16.58;;
2486;SDS011;1254;49.144;8.212;2024-03-08T02:20:20;29.00;;;18.70;;
2486;SDS011;1254;49.144;8.212;2024-03-08T02:22:50;29.38;;;17.70;;
2486;SDS011;1254;49.144;8.212;2024-03-08T02:25:18;29.75;;;18.73;;
2486;SDS011;1254;49.144;8.212;2024-03-08T02:27:47;28.50;;;18.30;;
2486;SDS011;1254;49.144;8.212;2024-03-08T02:30:15;28.23;;;19.10;;
2486;SDS011;1254;49.144;8.212;2024-03-08T02:32:44;29.77;;;18.27;;
2486;SDS011;1254;49.144;8.212;2024-03-08T02:35:12;31.08;;;19.27;;
2486;SDS011;1254;49.144;8.212;2024-03-08T02:37:40;30.15;;;20.15;;
2486;SDS011;1254;49.144;8.212;2024-03-08T02:40:11;24.85;;;17.77;;
2486;SDS011;1254;49.144;8.212;2024-03-08T02:42:39;26.33;;;16.58;;
2486;SDS011;1254;49.144;8.212;2024-03-08T02:45:08;26.80;;;18.00;;
2486;SDS011;1254;49.144;8.212;2024-03-08T02:47:37;26.13;;;17.27;;
2486;SDS011;1254;49.144;8.212;2024-03-08T02:50:05;24.70;;;18.95;;
2486;SDS011;1254;49.144;8.212;2024-03-08T02:52:34;28.58;;;18.20;;
2486;SDS011;1254;49.144;8.212;2024-03-08T02:55:03;28.00;;;18.55;;
2486;SDS011;1254;49.144;8.212;2024-03-08T02:57:33;29.70;;;18.48;;
2486;SDS011;1254;49.144;8.212;2024-03-08T03:00:02;27.15;;;18.80;;
2486;SDS011;1254;49.144;8.212;2024-03-08T03:02:31;29.48;;;18.52;;
2486;SDS011;1254;49.144;8.212;2024-03-08T03:04:59;24.35;;;17.67;;
2486;SDS011;1254;49.144;8.212;2024-03-08T03:07:31;24.98;;;17.75;;
2486;SDS011;1254;49.144;8.212;2024-03-08T03:10:00;28.27;;;19.58;;
2486;SDS011;1254;49.144;8.212;2024-03-08T03:12:29;29.58;;;18.70;;
2486;SDS011;1254;49.144;8.212;2024-03-08T03:14:58;32.53;;;20.27;;
2486;SDS011;1254;49.144;8.212;2024-03-08T03:17:27;28.77;;;20.45;;
2486;SDS011;1254;49.144;8.212;2024-03-08T03:19:56;32.00;;;19.25;;
2486;SDS011;1254;49.144;8.212;2024-03-08T03:22:24;28.90;;;19.08;;
2486;SDS011;1254;49.144;8.212;2024-03-08T03:24:53;33.90;;;18.58;;
2486;SDS011;1254;49.144;8.212;2024-03-08T03:27:24;31.42;;;19.55;;
2486;SDS011;1254;49.144;8.212;2024-03-08T03:29:52;31.20;;;17.90;;
2486;SDS011;1254;49.144;8.212;2024-03-08T03:32:23;30.48;;;17.85;;
2486;SDS011;1254;49.144;8.212;2024-03-08T03:34:52;30.63;;;18.25;;
2486;SDS011;1254;49.144;8.212;2024-03-08T03:37:21;33.50;;;18.80;;
2486;SDS011;1254;49.144;8.212;2024-03-08T03:39:49;30.70;;;18.35;;
2486;SDS011;1254;49.144;8.212;2024-03-08T03:42:19;30.83;;;19.58;;
2486;SDS011;1254;49.144;8.212;2024-03-08T03:44:48;33.47;;;19.13;;
2486;SDS011;1254;49.144;8.212;2024-03-08T03:47:17;30.33;;;19.40;;
2486;SDS011;1254;49.144;8.212;2024-03-08T03:49:46;28.20;;;19.48;;
2486;SDS011;1254;49.144;8.212;2024-03-08T03:52:15;28.40;;;18.65;;
2486;SDS011;1254;49.144;8.212;2024-03-08T03:54:43;26.02;;;18.63;;
2486;SDS011;1254;49.144;8.212;2024-03-08T03:57:11;29.65;;;18.88;;
2486;SDS011;1254;49.144;8.212;2024-03-08T03:59:40;29.88;;;18.75;;
2486;SDS011;1254;49.144;8.212;2024-03-08T04:02:08;29.88;;;19.55;;
2486;SDS011;1254;49.144;8.212;2024-03-08T04:04:37;28.77;;;19.70;;
2486;SDS011;1254;49.144;8.212;2024-03-08T04:07:07;34.30;;;19.98;;
2486;SDS011;1254;49.144;8.212;2024-03-08T04:09:37;33.30;;;20.42;;
2486;SDS011;1254;49.144;8.212;2024-03-08T04:12:05;34.08;;;20.77;;
2486;SDS011;1254;49.144;8.212;2024-03-08T04:14:36;33.92;;;20.27;;
2486;SDS011;1254;49.144;8.212;2024-03-08T04:17:06;31.85;;;21.63;;
2486;SDS011;1254;49.144;8.212;2024-03-08T04:19:35;30.23;;;20.27;;
2486;SDS011;1254;49.144;8.212;2024-03-08T04:22:03;35.90;;;21.38;;
2486;SDS011;1254;49.144;8.212;2024-03-08T04:24:33;35.42;;;20.85;;
2486;SDS011;1254;49.144;8.212;2024-03-08T04:27:02;37.75;;;21.80;;
2486;SDS011;1254;49.144;8.212;2024-03-08T04:29:31;31.55;;;20.40;;
2486;SDS011;1254;49.144;8.212;2024-03-08T04:32:02;33.72;;;19.20;;
2486;SDS011;1254;49.144;8.212;2024-03-08T04:34:30;31.48;;;21.30;;
2486;SDS011;1254;49.144;8.212;2024-03-08T04:36:58;33.17;;;19.85;;
2486;SDS011;1254;49.144;8.212;2024-03-08T04:39:27;33.55;;;20.15;;
2486;SDS011;1254;49.144;8.212;2024-03-08T04:41:57;32.05;;;20.67;;
2486;SDS011;1254;49.144;8.212;2024-03-08T04:44:27;39.60;;;21.50;;
2486;SDS011;1254;49.144;8.212;2024-03-08T04:46:56;37.20;;;21.98;;
2486;SDS011;1254;49.144;8.212;2024-03-08T04:49:24;36.60;;;23.48;;
2486;SDS011;1254;49.144;8.212;2024-03-08T04:51:54;39.53;;;21.13;;
2486;SDS011;1254;49.144;8.212;2024-03-08T04:54:22;33.28;;;21.50;;
2486;SDS011;1254;49.144;8.212;2024-03-08T04:56:50;35.88;;;22.60;;
2486;SDS011;1254;49.144;8.212;2024-03-08T04:59:20;34.30;;;21.55;;
2486;SDS011;1254;49.144;8.212;2024-03-08T05:01:48;36.45;;;22.20;;
2486;SDS011;1254;49.144;8.212;2024-03-08T05:04:17;32.00;;;21.92;;
2486;SDS011;1254;49.144;8.212;2024-03-08T05:06:46;37.10;;;22.42;;
2486;SDS011;1254;49.144;8.212;2024-03-08T05:09:14;36.42;;;22.85;;
2486;SDS011;1254;49.144;8.212;2024-03-08T05:11:43;30.80;;;21.00;;
2486;SDS011;1254;49.144;8.212;2024-03-08T05:14:12;36.92;;;21.70;;
2486;SDS011;1254;49.144;8.212;2024-03-08T05:16:44;34.28;;;20.25;;
2486;SDS011;1254;49.144;8.212;2024-03-08T05:19:14;31.95;;;19.75;;
2486;SDS011;1254;49.144;8.212;2024-03-08T05:21:44;33.72;;;19.98;;
2486;SDS011;1254;49.144;8.212;2024-03-08T05:24:12;31.60;;;20.23;;
2486;SDS011;1254;49.144;8.212;2024-03-08T05:26:40;32.15;;;20.65;;
2486;SDS011;1254;49.144;8.212;2024-03-08T05:29:09;30.40;;;19.23;;
2486;SDS011;1254;49.144;8.212;2024-03-08T05:31:42;33.38;;;20.45;;
2486;SDS011;1254;49.144;8.212;2024-03-08T05:34:12;33.30;;;19.33;;
2486;SDS011;1254;49.144;8.212;2024-03-08T05:36:41;33.45;;;19.85;;
2486;SDS011;1254;49.144;8.212;2024-03-08T05:39:10;34.13;;;20.88;;
2486;SDS011;1254;49.144;8.212;2024-03-08T05:41:39;37.15;;;22.13;;
2486;SDS011;1254;49.144;8.212;2024-03-08T05:44:07;40.15;;;21.00;;
2486;SDS011;1254;49.144;8.212;2024-03-08T05:46:36;44.60;;;25.50;;
2486;SDS011;1254;49.144;8.212;2024-03-08T05:49:05;41.60;;;22.73;;
2486;SDS011;1254;49.144;8.212;2024-03-08T05:51:38;36.33;;;22.60;;
2486;SDS011;1254;49.144;8.212;2024-03-08T05:54:06;32.47;;;20.52;;
2486;SDS011;1254;49.144;8.212;2024-03-08T05:56:36;36.58;;;22.67;;
2486;SDS011;1254;49.144;8.212;2024-03-08T05:59:04;33.88;;;20.73;;
2486;SDS011;1254;49.144;8.212;2024-03-08T06:01:32;38.55;;;22.50;;
2486;SDS011;1254;49.144;8.212;2024-03-08T06:04:02;37.50;;;21.27;;
2486;SDS011;1254;49.144;8.212;2024-03-08T06:06:31;35.67;;;20.90;;
2486;SDS011;1254;49.144;8.212;2024-03-08T06:09:01;28.83;;;19.98;;
2486;SDS011;1254;49.144;8.212;2024-03-08T06:11:35;35.17;;;20.75;;
2486;SDS011;1254;49.144;8.212;2024-03-08T06:14:04;32.55;;;19.13;;
2486;SDS011;1254;49.144;8.212;2024-03-08T06:16:32;39.38;;;21.27;;
2486;SDS011;1254;49.144;8.212;2024-03-08T06:19:02;35.13;;;20.85;;
2486;SDS011;1254;49.144;8.212;2024-03-08T06:21:32;30.98;;;20.85;;
2486;SDS011;1254;49.144;8.212;2024-03-08T06:24:02;30.58;;;18.85;;
2486;SDS011;1254;49.144;8.212;2024-03-08T06:26:30;31.13;;;19.27;;
2486;SDS011;1254;49.144;8.212;2024-03-08T06:28:59;33.83;;;21.55;;
2486;SDS011;1254;49.144;8.212;2024-03-08T06:31:27;30.13;;;19.65;;
2486;SDS011;1254;49.144;8.212;2024-03-08T06:33:57;29.90;;;20.08;;
2486;SDS011;1254;49.144;8.212;2024-03-08T06:36:25;34.10;;;20.55;;
2486;SDS011;1254;49.144;8.212;2024-03-08T06:38:54;35.22;;;19.90;;
2486;SDS011;1254;49.144;8.212;2024-03-08T06:41:25;30.60;;;20.48;;
2486;SDS011;1254;49.144;8.212;2024-03-08T06:43:54;33.95;;;21.48;;
2486;SDS011;1254;49.144;8.212;2024-03-08T06:46:25;35.10;;;22.30;;
2486;SDS011;1254;49.144;8.212;2024-03-08T06:49:01;35.60;;;22.65;;
2486;SDS011;1254;49.144;8.212;2024-03-08T06:51:29;33.17;;;20.70;;
2486;SDS011;1254;49.144;8.212;2024-03-08T06:53:58;29.77;;;21.58;;
2486;SDS011;1254;49.144;8.212;2024-03-08T06:56:28;32.97;;;20.42;;
2486;SDS011;1254;49.144;8.212;2024-03-08T06:58:57;32.13;;;19.00;;
2486;SDS011;1254;49.144;8.212;2024-03-08T07:01:25;30.77;;;19.80;;
2486;SDS011;1254;49.144;8.212;2024-03-08T07:03:54;28.15;;;18.45;;
2486;SDS011;1254;49.144;8.212;2024-03-08T07:06:23;40.22;;;20.30;;
2486;SDS011;1254;49.144;8.212;2024-03-08T07:08:52;32.08;;;18.70;;
2486;SDS011;1254;49.144;8.212;2024-03-08T07:11:20;31.40;;;19.52;;
2486;SDS011;1254;49.144;8.212;2024-03-08T07:13:50;28.52;;;18.95;;
2486;SDS011;1254;49.144;8.212;2024-03-08T07:16:18;25.70;;;17.55;;
2486;SDS011;1254;49.144;8.212;2024-03-08T07:18:47;33.53;;;19.55;;
2486;SDS011;1254;49.144;8.212;2024-03-08T07:21:18;32.65;;;19.95;;
2486;SDS011;1254;49.144;8.212;2024-03-08T07:23:47;30.98;;;17.73;;
2486;SDS011;1254;49.144;8.212;2024-03-08T07:26:32;28.55;;;17.33;;
2486;SDS011;1254;49.144;8.212;2024-03-08T07:29:02;28.48;;;17.50;;
2486;SDS011;1254;49.144;8.212;2024-03-08T07:31:31;32.30;;;18.30;;
2486;SDS011;1254;49.144;8.212;2024-03-08T07:34:11;34.22;;;20.15;;
2486;SDS011;1254;49.144;8.212;2024-03-08T07:36:39;30.95;;;20.50;;
2486;SDS011;1254;49.144;8.212;2024-03-08T07:39:08;30.58;;;18.80;;
2486;SDS011;1254;49.144;8.212;2024-03-08T07:41:38;24.20;;;17.35;;
2486;SDS011;1254;49.144;8.212;2024-03-08T07:44:08;26.30;;;17.75;;
2486;SDS011;1254;49.144;8.212;2024-03-08T07:46:37;32.35;;;18.40;;
2486;SDS011;1254;49.144;8.212;2024-03-08T07:49:05;24.48;;;17.20;;
2486;SDS011;1254;49.144;8.212;2024-03-08T07:51:37;28.52;;;17.48;;
2486;SDS011;1254;49.144;8.212;2024-03-08T07:54:05;27.85;;;18.02;;
2486;SDS011;1254;49.144;8.212;2024-03-08T07:56:35;24.83;;;16.92;;
2486;SDS011;1254;49.144;8.212;2024-03-08T07:59:04;27.17;;;18.65;;
2486;SDS011;1254;49.144;8.212;2024-03-08T08:01:34;27.05;;;17.45;;
2486;SDS011;1254;49.144;8.212;2024-03-08T08:04:02;27.77;;;18.45;;
2486;SDS011;1254;49.144;8.212;2024-03-08T08:06:31;24.85;;;17.55;;
2486;SDS011;1254;49.144;8.212;2024-03-08T08:08:59;22.67;;;15.73;;
2486;SDS011;1254;49.144;8.212;2024-03-08T08:11:28;23.63;;;17.33;;
2486;SDS011;1254;49.144;8.212;2024-03-08T08:13:58;26.65;;;17.25;;
2486;SDS011;1254;49.144;8.212;2024-03-08T08:16:27;24.63;;;17.10;;
2486;SDS011;1254;49.144;8.212;2024-03-08T08:18:56;27.65;;;17.38;;
2486;SDS011;1254;49.144;8.212;2024-03-08T08:21:25;24.15;;;17.55;;
2486;SDS011;1254;49.144;8.212;2024-03-08T08:23:53;26.00;;;18.05;;
2486;SDS011;1254;49.144;8.212;2024-03-08T08:26:22;25.83;;;18.08;;
2486;SDS011;1254;49.144;8.212;2024-03-08T08:28:52;25.80;;;17.55;;
2486;SDS011;1254;49.144;8.212;2024-03-08T08:31:21;24.55;;;17.48;;
2486;SDS011;1254;49.144;8.212;2024-03-08T08:33:49;21.40;;;14.95;;
2486;SDS011;1254;49.144;8.212;2024-03-08T08:36:23;25.10;;;18.25;;
2486;SDS011;1254;49.144;8.212;2024-03-08T08:38:52;24.67;;;18.23;;
2486;SDS011;1254;49.144;8.212;2024-03-08T08:41:22;25.52;;;17.67;;
2486;SDS011;1254;49.144;8.212;2024-03-08T08:43:50;25.55;;;17.85;;
2486;SDS011;1254;49.144;8.212;2024-03-08T08:46:22;25.83;;;17.13;;
2486;SDS011;1254;49.144;8.212;2024-03-08T08:48:50;25.50;;;16.67;;
2486;SDS011;1254;49.144;8.212;2024-03-08T08:51:19;21.60;;;17.40;;
2486;SDS011;1254;49.144;8.212;2024-03-08T08:53:50;22.33;;;17.42;;
2486;SDS011;1254;49.144;8.212;2024-03-08T08:56:18;22.75;;;16.50;;
2486;SDS011;1254;49.144;8.212;2024-03-08T08:58:48;23.77;;;18.30;;
2486;SDS011;1254;49.144;8.212;2024-03-08T09:01:16;21.42;;;17.05;;
2486;SDS011;1254;49.144;8.212;2024-03-08T09:03:45;25.08;;;17.70;;
2486;SDS011;1254;49.144;8.212;2024-03-08T09:06:14;24.67;;;17.92;;
2486;SDS011;1254;49.144;8.212;2024-03-08T09:08:43;28.02;;;18.80;;
2486;SDS011;1254;49.144;8.212;2024-03-08T09:11:15;26.08;;;18.92;;
2486;SDS011;1254;49.144;8.212;2024-03-08T09:13:46;29.38;;;18.02;;
2486;SDS011;1254;49.144;8.212;2024-03-08T09:16:15;27.38;;;17.55;;
2486;SDS011;1254;49.144;8.212;2024-03-08T09:18:43;22.77;;;18.23;;
2486;SDS011;1254;49.144;8.212;2024-03-08T09:21:11;22.08;;;16.60;;
2486;SDS011;1254;49.144;8.212;2024-03-08T09:23:40;26.38;;;19.00;;
2486;SDS011;1254;49.144;8.212;2024-03-08T09:26:11;26.25;;;19.50;;
2486;SDS011;1254;49.144;8.212;2024-03-08T09:28:45;25.58;;;17.70;;
2486;SDS011;1254;49.144;8.212;2024-03-08T09:31:13;22.90;;;17.75;;
2486;SDS011;1254;49.144;8.212;2024-03-08T09:33:42;28.67;;;20.35;;
2486;SDS011;1254;49.144;8.212;2024-03-08T09:36:10;29.52;;;20.13;;
2486;SDS011;1254;49.144;8.212;2024-03-08T09:38:38;24.70;;;18.92;;
2486;SDS011;1254;49.144;8.212;2024-03-08T09:41:07;21.85;;;18.90;;
2486;SDS011;1254;49.144;8.212;2024-03-08T09:43:36;24.52;;;19.40;;
2486;SDS011;1254;49.144;8.212;2024-03-08T09:46:06;23.38;;;18.85;;
2486;SDS011;1254;49.144;8.212;2024-03-08T09:48:37;22.50;;;17.42;;
2486;SDS011;1254;49.144;8.212;2024-03-08T09:51:07;24.52;;;18.88;;
2486;SDS011;1254;49.144;8.212;2024-03-08T09:53:39;22.85;;;18.40;;
2486;SDS011;1254;49.144;8.212;2024-03-08T09:56:08;21.05;;;16.95;;
2486;SDS011;1254;49.144;8.212;2024-03-08T09:58:37;24.38;;;18.35;;
2486;SDS011;1254;49.144;8.212;2024-03-08T10:01:26;23.73;;;18.05;;
2486;SDS011;1254;49.144;8.212;2024-03-08T10:03:59;23.88;;;18.65;;
2486;SDS011;1254;49.144;8.212;2024-03-08T10:06:28;21.35;;;18.40;;
2486;SDS011;1254;49.144;8.212;2024-03-08T10:08:57;23.63;;;17.55;;
2486;SDS011;1254;49.144;8.212;2024-03-08T10:11:26;27.77;;;17.05;;
2486;SDS011;1254;49.144;8.212;2024-03-08T10:13:55;22.27;;;18.60;;
2486;SDS011;1254;49.144;8.212;2024-03-08T10:16:23;24.38;;;17.35;;
2486;SDS011;1254;49.144;8.212;2024-03-08T10:18:57;20.83;;;17.95;;
2486;SDS011;1254;49.144;8.212;2024-03-08T10:21:26;23.65;;;18.55;;
2486;SDS011;1254;49.144;8.212;2024-03-08T10:23:55;24.80;;;19.33;;
2486;SDS011;1254;49.144;8.212;2024-03-08T10:26:25;22.85;;;19.63;;
2486;SDS011;1254;49.144;8.212;2024-03-08T10:28:53;21.75;;;18.27;;
2486;SDS011;1254;49.144;8.212;2024-03-08T10:31:24;24.80;;;17.95;;
2486;SDS011;1254;49.144;8.212;2024-03-08T10:33:52;20.60;;;16.90;;
2486;SDS011;1254;49.144;8.212;2024-03-08T10:36:22;26.70;;;17.63;;
2486;SDS011;1254;49.144;8.212;2024-03-08T10:38:51;24.13;;;17.80;;
2486;SDS011;1254;49.144;8.212;2024-03-08T10:41:23;22.35;;;18.30;;
2486;SDS011;1254;49.144;8.212;2024-03-08T10:43:56;23.77;;;19.90;;
2486;SDS011;1254;49.144;8.212;2024-03-08T10:46:35;25.40;;;19.55;;
2486;SDS011;1254;49.144;8.212;2024-03-08T10:49:08;25.17;;;19.80;;
2486;SDS011;1254;49.144;8.212;2024-03-08T10:51:42;22.83;;;18.02;;
2486;SDS011;1254;49.144;8.212;2024-03-08T10:54:10;22.58;;;18.23;;
2486;SDS011;1254;49.144;8.212;2024-03-08T10:56:41;21.65;;;18.08;;
2486;SDS011;1254;49.144;8.212;2024-03-08T10:59:12;27.38;;;19.75;;
2486;SDS011;1254;49.144;8.212;2024-03-08T11:01:41;23.92;;;18.00;;
2486;SDS011;1254;49.144;8.212;2024-03-08T11:04:12;22.05;;;18.42;;
2486;SDS011;1254;49.144;8.212;2024-03-08T11:06:46;21.63;;;18.38;;
2486;SDS011;1254;49.144;8.212;2024-03-08T11:09:28;25.33;;;19.83;;
2486;SDS011;1254;49.144;8.212;2024-03-08T11:12:21;21.80;;;18.10;;
2486;SDS011;1254;49.144;8.212;2024-03-08T11:14:51;20.80;;;18.08;;
2486;SDS011;1254;49.144;8.212;2024-03-08T11:17:20;22.13;;;19.60;;
2486;SDS011;1254;49.144;8.212;2024-03-08T11:19:49;23.55;;;19.98;;
2486;SDS011;1254;49.144;8.212;2024-03-08T11:22:25;26.27;;;21.05;;
2486;SDS011;1254;49.144;8.212;2024-03-08T11:24:58;22.13;;;18.73;;
2486;SDS011;1254;49.144;8.212;2024-03-08T11:27:30;22.08;;;19.45;;
2486;SDS011;1254;49.144;8.212;2024-03-08T11:29:59;23.05;;;19.00;;
2486;SDS011;1254;49.144;8.212;2024-03-08T11:32:37;22.55;;;19.60;;
2486;SDS011;1254;49.144;8.212;2024-03-08T11:35:08;25.15;;;19.77;;
2486;SDS011;1254;49.144;8.212;2024-03-08T11:37:50;22.63;;;18.95;;
2486;SDS011;1254;49.144;8.212;2024-03-08T11:40:18;22.08;;;19.55;;
2486;SDS011;1254;49.144;8.212;2024-03-08T11:42:47;22.88;;;19.20;;
2486;SDS011;1254;49.144;8.212;2024-03-08T11:45:17;22.85;;;18.65;;
2486;SDS011;1254;49.144;8.212;2024-03-08T11:47:47;26.15;;;19.90;;
2486;SDS011;1254;49.144;8.212;2024-03-08T11:50:16;23.00;;;20.63;;
2486;SDS011;1254;49.144;8.212;2024-03-08T11:52:47;21.80;;;18.77;;
2486;SDS011;1254;49.144;8.212;2024-03-08T11:55:17;23.58;;;20.63;;
2486;SDS011;1254;49.144;8.212;2024-03-08T11:57:46;23.15;;;19.80;;
2486;SDS011;1254;49.144;8.212;2024-03-08T12:00:16;42.80;;;28.35;;
2486;SDS011;1254;49.144;8.212;2024-03-08T12:03:02;22.60;;;20.13;;
2486;SDS011;1254;49.144;8.212;2024-03-08T12:05:31;23.65;;;21.02;;
2486;SDS011;1254;49.144;8.212;2024-03-08T12:08:01;25.15;;;19.38;;
2486;SDS011;1254;49.144;8.212;2024-03-08T12:10:31;23.48;;;20.98;;
2486;SDS011;1254;49.144;8.212;2024-03-08T12:12:59;23.40;;;20.23;;
2486;SDS011;1254;49.144;8.212;2024-03-08T12:15:29;27.73;;;19.85;;
2486;SDS011;1254;49.144;8.212;2024-03-08T12:17:59;26.13;;;21.10;;
2486;SDS011;1254;49.144;8.212;2024-03-08T12:20:31;22.63;;;20.17;;
2486;SDS011;1254;49.144;8.212;2024-03-08T12:22:59;21.45;;;19.00;;
2486;SDS011;1254;49.144;8.212;2024-03-08T12:25:31;22.98;;;20.58;;
2486;SDS011;1254;49.144;8.212;2024-03-08T12:28:07;21.95;;;19.58;;
2486;SDS011;1254;49.144;8.212;2024-03-08T12:30:45;23.65;;;21.17;;
2486;SDS011;1254;49.144;8.212;2024-03-08T12:33:14;23.58;;;21.08;;
2486;SDS011;1254;49.144;8.212;2024-03-08T12:35:51;21.65;;;19.60;;
2486;SDS011;1254;49.144;8.212;2024-03-08T12:38:27;22.50;;;20.33;;
2486;SDS011;1254;49.144;8.212;2024-03-08T12:40:59;22.75;;;20.45;;
2486;SDS011;1254;49.144;8.212;2024-03-08T12:43:29;22.10;;;19.90;;
2486;SDS011;1254;49.144;8.212;2024-03-08T12:45:58;23.67;;;20.60;;
2486;SDS011;1254;49.144;8.212;2024-03-08T12:48:26;24.10;;;21.77;;
2486;SDS011;1254;49.144;8.212;2024-03-08T12:50:55;23.63;;;21.38;;
2486;SDS011;1254;49.144;8.212;2024-03-08T12:53:23;22.90;;;20.70;;
2486;SDS011;1254;49.144;8.212;2024-03-08T12:55:55;23.23;;;21.03;;
2486;SDS011;1254;49.144;8.212;2024-03-08T12:58:28;25.20;;;22.77;;
2486;SDS011;1254;49.144;8.212;2024-03-08T13:00:57;24.90;;;22.40;;
2486;SDS011;1254;49.144;8.212;2024-03-08T13:03:26;24.33;;;21.83;;
2486;SDS011;1254;49.144;8.212;2024-03-08T13:05:54;24.17;;;21.83;;
2486;SDS011;1254;49.144;8.212;2024-03-08T13:08:23;25.20;;;22.70;;
2486;SDS011;1254;49.144;8.212;2024-03-08T13:10:54;27.47;;;24.93;;
2486;SDS011;1254;49.144;8.212;2024-03-08T13:13:22;26.63;;;24.07;;
2486;SDS011;1254;49.144;8.212;2024-03-08T13:15:52;26.27;;;23.90;;
2486;SDS011;1254;49.144;8.212;2024-03-08T13:18:22;24.83;;;22.63;;
2486;SDS011;1254;49.144;8.212;2024-03-08T13:20:51;25.43;;;23.27;;
2486;SDS011;1254;49.144;8.212;2024-03-08T13:23:19;25.40;;;23.00;;
2486;SDS011;1254;49.144;8.212;2024-03-08T13:25:47;24.57;;;22.37;;
2486;SDS011;1254;49.144;8.212;2024-03-08T13:28:16;24.40;;;22.37;;
2486;SDS011;1254;49.144;8.212;2024-03-08T13:30:49;25.30;;;22.63;;
2486;SDS011;1254;49.144;8.212;2024-03-08T13:33:18;25.97;;;23.60;;
2486;SDS011;1254;49.144;8.212;2024-03-08T13:35:47;26.73;;;24.20;;
2486;SDS011;1254;49.144;8.212;2024-03-08T13:38:17;24.73;;;22.63;;
2486;SDS011;1254;49.144;8.212;2024-03-08T13:40:46;24.57;;;22.50;;
2486;SDS011;1254;49.144;8.212;2024-03-08T13:43:18;25.07;;;22.77;;
2486;SDS011;1254;49.144;8.212;2024-03-08T13:45:48;26.17;;;23.77;;
2486;SDS011;1254;49.144;8.212;2024-03-08T13:48:20;26.87;;;24.30;;
2486;SDS011;1254;49.144;8.212;2024-03-08T13:50:48;27.37;;;24.87;;
2486;SDS011;1254;49.144;8.212;2024-03-08T13:53:17;28.03;;;25.43;;
2486;SDS011;1254;49.144;8.212;2024-03-08T13:55:47;26.53;;;24.13;;
2486;SDS011;1254;49.144;8.212;2024-03-08T13:58:15;24.80;;;22.50;;
2486;SDS011;1254;49.144;8.212;2024-03-08T14:00:43;26.47;;;24.03;;
2486;SDS011;1254;49.144;8.212;2024-03-08T14:03:14;26.73;;;24.40;;
2486;SDS011;1254;49.144;8.212;2024-03-08T14:05:44;26.23;;;23.93;;
2486;SDS011;1254;49.144;8.212;2024-03-08T14:08:15;25.15;;;22.75;;
2486;SDS011;1254;49.144;8.212;2024-03-08T14:10:44;24.63;;;22.53;;
2486;SDS011;1254;49.144;8.212;2024-03-08T14:13:16;26.90;;;24.30;;
2486;SDS011;1254;49.144;8.212;2024-03-08T14:15:45;27.80;;;24.10;;
2486;SDS011;1254;49.144;8.212;2024-03-08T14:18:16;27.67;;;25.17;;
2486;SDS011;1254;49.144;8.212;2024-03-08T14:20:47;27.93;;;25.40;;
2486;SDS011;1254;49.144;8.212;2024-03-08T14:23:16;28.73;;;26.23;;
2486;SDS011;1254;49.144;8.212;2024-03-08T14:25:46;25.83;;;23.33;;
2486;SDS011;1254;49.144;8.212;2024-03-08T14:28:18;28.97;;;26.10;;
2486;SDS011;1254;49.144;8.212;2024-03-08T14:30:52;28.40;;;25.87;;
2486;SDS011;1254;49.144;8.212;2024-03-08T14:33:20;27.23;;;24.93;;
2486;SDS011;1254;49.144;8.212;2024-03-08T14:35:54;28.60;;;25.90;;
2486;SDS011;1254;49.144;8.212;2024-03-08T14:38:24;28.10;;;25.57;;
2486;SDS011;1254;49.144;8.212;2024-03-08T14:40:53;27.93;;;25.23;;
2486;SDS011;1254;49.144;8.212;2024-03-08T14:43:22;27.13;;;24.30;;
2486;SDS011;1254;49.144;8.212;2024-03-08T14:45:52;28.50;;;25.80;;
2486;SDS011;1254;49.144;8.212;2024-03-08T14:48:22;27.20;;;24.80;;
2486;SDS011;1254;49.144;8.212;2024-03-08T14:50:50;27.43;;;24.87;;
2486;SDS011;1254;49.144;8.212;2024-03-08T14:53:20;29.17;;;26.37;;
2486;SDS011;1254;49.144;8.212;2024-03-08T14:55:49;28.83;;;26.20;;
2486;SDS011;1254;49.144;8.212;2024-03-08T14:58:18;27.90;;;25.33;;
2486;SDS011;1254;49.144;8.212;2024-03-08T15:00:47;27.47;;;25.17;;
2486;SDS011;1254;49.144;8.212;2024-03-08T15:03:21;25.67;;;23.43;;
2486;SDS011;1254;49.144;8.212;2024-03-08T15:05:54;27.10;;;24.80;;